Time;durP1;ratioP1;P1;durP2;ratioP2;P2;SDS_P1;SDS_P2;PMS_P1;PMS_P2;Temp;Humidity;BMP_temperature;BMP_pressure;BME280_temperature;BME280_humidity;BME280_pressure;Samples;Min_cycle;Max_cycle;Signal;HPM_P1;HPM_P2
2022/10/10 00:00:51;;;;;;;5.05;1.80;;;;;;;-148.88;87.07;76370.38;4975129;28;20033;-77
2022/10/10 00:03:17;;;;;;;5.40;1.88;;;;;;;-148.88;87.33;76368.34;4973882;28;20035;-77
2022/10/10 00:05:43;;;;;;;4.20;1.70;;;;;;;-148.88;87.04;76366.31;4975063;28;20030;-77
2022/10/10 00:08:09;;;;;;;4.43;1.45;;;;;;;-148.88;87.63;76366.31;4973714;28;20033;-77
2022/10/10 00:10:34;;;;;;;2.97;1.70;;;;;;;-148.88;87.66;76366.31;4975191;28;20106;-77
2022/10/10 00:13:01;;;;;;;3.60;1.90;;;;;;;-148.88;87.49;76366.31;4975211;28;20085;-78
2022/10/10 00:15:26;;;;;;;5.82;1.55;;;;;;;-148.88;87.49;76370.38;4974988;28;20022;-77
2022/10/10 00:17:51;;;;;;;5.05;2.17;;;;;;;-148.88;87.78;76370.38;4973603;28;20116;-77
2022/10/10 00:20:22;;;;;;;3.80;1.90;;;;;;;-148.88;87.80;76366.31;4975442;28;20085;-77
2022/10/10 00:22:47;;;;;;;5.50;2.30;;;;;;;-148.88;87.73;76372.41;4975060;28;20030;-76
2022/10/10 00:25:13;;;;;;;3.72;1.55;;;;;;;-148.88;88.11;76380.53;4974842;28;20086;-77
2022/10/10 00:27:38;;;;;;;3.63;1.73;;;;;;;-148.88;87.89;76384.59;4974964;28;20078;-77
2022/10/10 00:30:07;;;;;;;4.85;2.08;;;;;;;-148.88;87.92;76378.50;4974856;28;20025;-77
2022/10/10 00:32:33;;;;;;;5.45;2.13;;;;;;;-148.88;88.11;76378.50;4974346;28;20463;-77
2022/10/10 00:34:58;;;;;;;4.07;1.55;;;;;;;-148.88;88.50;76384.59;4975967;28;20027;-78
2022/10/10 00:37:25;;;;;;;4.80;2.00;;;;;;;-148.88;88.47;76374.44;4977687;28;20022;-78
2022/10/10 00:39:50;;;;;;;5.40;2.30;;;;;;;-148.88;88.26;76370.38;4978955;28;20087;-78
2022/10/10 00:42:16;;;;;;;4.88;1.90;;;;;;;-148.88;88.77;76374.44;4978227;28;20023;-78
2022/10/10 00:44:43;;;;;;;5.10;2.20;;;;;;;-148.88;88.81;76378.50;4978688;28;20037;-78
2022/10/10 00:47:12;;;;;;;3.05;1.75;;;;;;;-148.88;88.65;76374.44;4978022;28;20027;-77
2022/10/10 00:49:41;;;;;;;3.65;1.50;;;;;;;-148.88;88.67;76378.50;4977039;28;20394;-78
2022/10/10 00:52:10;;;;;;;3.70;1.95;;;;;;;-148.88;88.58;76378.50;4977165;28;20115;-78
2022/10/10 00:54:37;;;;;;;4.85;2.13;;;;;;;-148.88;88.38;76372.41;4976542;28;20037;-78
2022/10/10 00:57:13;;;;;;;4.93;2.30;;;;;;;-148.88;88.63;76370.38;4977234;28;20464;-78
2022/10/10 00:59:41;;;;;;;6.95;2.22;;;;;;;-148.88;88.50;76374.44;4985737;23;20039;-83
2022/10/10 01:02:14;;;;;;;4.38;2.10;;;;;;;-148.88;88.97;76374.44;4976033;28;20046;-85
2022/10/10 01:04:46;;;;;;;3.08;1.70;;;;;;;-148.88;88.95;76382.56;4975815;28;20030;-84
2022/10/10 01:07:22;;;;;;;4.07;1.55;;;;;;;-148.88;88.84;76386.63;4959624;28;20050;-83
2022/10/10 01:09:54;;;;;;;3.83;1.92;;;;;;;-148.88;88.63;76392.72;4976466;28;20026;-84
2022/10/10 01:12:59;;;;;;;3.72;2.05;;;;;;;-148.88;89.12;76400.84;4974672;28;20105;-83
2022/10/10 01:15:28;;;;;;;4.15;1.60;;;;;;;-148.88;89.24;76400.84;4981995;23;20055;-75
2022/10/10 01:18:10;;;;;;;3.53;1.58;;;;;;;-148.88;89.58;76398.81;4954172;29;20038;-75
2022/10/10 01:20:57;;;;;;;4.65;2.45;;;;;;;-148.88;89.56;76394.75;4954841;28;20046;-74
2022/10/10 01:23:52;;;;;;;4.85;2.33;;;;;;;-148.88;89.35;76390.69;4954220;28;20142;-75
2022/10/10 01:26:45;;;;;;;5.80;2.28;;;;;;;-148.88;89.54;76384.59;4952237;28;20046;-74
2022/10/10 01:29:28;;;;;;;3.92;1.90;;;;;;;-148.88;89.70;76394.75;4956594;28;20034;-75
2022/10/10 01:32:00;;;;;;;5.25;1.65;;;;;;;-148.88;89.81;76396.78;4958167;28;20146;-75
2022/10/10 01:34:33;;;;;;;3.72;1.80;;;;;;;-148.88;89.70;76400.84;4958620;28;20070;-75
2022/10/10 01:37:27;;;;;;;2.40;1.58;;;;;;;-148.88;89.76;76398.81;4958032;28;20054;-74
2022/10/10 01:39:55;;;;;;;3.63;1.40;;;;;;;-148.88;89.75;76404.91;4958199;28;20114;-74
2022/10/10 01:42:42;;;;;;;4.05;1.60;;;;;;;-148.88;89.98;76402.88;4957750;28;20023;-74
2022/10/10 01:45:08;;;;;;;4.50;1.50;;;;;;;-148.88;90.03;76404.91;4957740;28;20039;-74
2022/10/10 01:47:33;;;;;;;7.00;1.67;;;;;;;-148.88;89.95;76398.81;4957427;28;20435;-74
2022/10/10 01:50:05;;;;;;;6.43;1.85;;;;;;;-148.88;90.14;76398.81;4957419;28;20394;-74
2022/10/10 01:52:48;;;;;;;5.25;2.38;;;;;;;-148.88;90.07;76402.88;4956112;28;20027;-74
2022/10/10 01:55:37;;;;;;;4.35;1.50;;;;;;;-148.88;90.34;76402.88;4957792;28;20448;-74
2022/10/10 01:58:12;;;;;;;4.60;1.90;;;;;;;-148.88;90.56;76396.78;4956346;29;20034;-74
2022/10/10 02:00:53;;;;;;;5.38;2.30;;;;;;;-148.88;90.41;76398.81;4956302;28;20458;-74
2022/10/10 02:03:25;;;;;;;4.18;1.65;;;;;;;-148.88;90.72;76400.84;4957876;28;20031;-74
2022/10/10 02:06:02;;;;;;;3.95;1.67;;;;;;;-148.88;90.47;76394.75;4957387;28;20478;-74
2022/10/10 02:08:33;;;;;;;4.88;1.60;;;;;;;-148.88;90.68;76394.75;4957309;28;20027;-74
2022/10/10 02:11:01;;;;;;;2.78;1.50;;;;;;;-148.88;90.53;76390.69;4957512;28;20047;-74
2022/10/10 02:13:41;;;;;;;4.13;1.70;;;;;;;-148.88;90.39;76384.59;4956925;28;20020;-74
2022/10/10 02:16:14;;;;;;;5.00;2.03;;;;;;;-148.88;90.29;76374.44;4956984;28;20043;-74
2022/10/10 02:18:46;;;;;;;4.43;1.65;;;;;;;-148.88;90.33;76380.53;4955850;28;20042;-74
2022/10/10 02:21:13;;;;;;;3.00;1.70;;;;;;;-148.88;90.43;76378.50;4956822;28;20045;-74
2022/10/10 02:23:42;;;;;;;2.55;1.50;;;;;;;-148.88;90.70;76380.53;4955457;28;20029;-74
2022/10/10 02:26:11;;;;;;;7.25;2.08;;;;;;;-148.88;90.73;76382.56;4956809;28;20039;-74
2022/10/10 02:28:38;;;;;;;4.78;2.10;;;;;;;-148.88;90.79;76370.38;4956734;28;20055;-74
2022/10/10 02:31:10;;;;;;;2.92;1.75;;;;;;;-148.88;90.36;76378.50;4956852;28;20110;-74
2022/10/10 02:33:47;;;;;;;5.90;2.42;;;;;;;-148.88;90.46;76386.63;4957236;28;20034;-74
2022/10/10 02:36:15;;;;;;;3.50;1.85;;;;;;;-148.88;90.63;76394.75;4957506;28;20027;-74
2022/10/10 02:38:43;;;;;;;4.75;1.80;;;;;;;-148.88;90.51;76390.69;4956967;28;20038;-74
2022/10/10 02:41:13;;;;;;;4.55;1.77;;;;;;;-148.88;90.86;76384.59;4956956;28;20030;-74
2022/10/10 02:43:39;;;;;;;3.58;1.70;;;;;;;-148.88;90.85;76378.50;4956722;28;20125;-74
2022/10/10 02:46:10;;;;;;;4.70;2.00;;;;;;;-148.88;90.85;76370.38;4957012;28;20023;-75
2022/10/10 02:48:36;;;;;;;4.80;2.38;;;;;;;-148.88;90.78;76374.44;4955431;29;20031;-74
2022/10/10 02:51:01;;;;;;;4.50;1.67;;;;;;;-148.88;91.09;76378.50;4956756;28;20379;-74
2022/10/10 02:53:27;;;;;;;5.85;2.00;;;;;;;-148.88;90.98;76374.44;4956675;28;20106;-74
2022/10/10 02:55:52;;;;;;;3.90;2.22;;;;;;;-148.88;91.02;76370.38;4957142;28;20027;-74
2022/10/10 02:58:18;;;;;;;5.63;2.30;;;;;;;-148.88;90.62;76366.31;4956341;28;20042;-74
2022/10/10 03:00:43;;;;;;;4.20;2.03;;;;;;;-148.88;91.14;76370.38;4956357;28;20478;-74
2022/10/10 03:03:08;;;;;;;6.72;2.03;;;;;;;-148.88;90.97;76374.44;4956280;28;20058;-74
2022/10/10 03:05:34;;;;;;;6.35;2.15;;;;;;;-148.88;91.23;76378.50;4956349;28;20028;-74
2022/10/10 03:07:59;;;;;;;4.07;2.58;;;;;;;-148.88;91.23;76374.44;4956195;28;20054;-74
2022/10/10 03:10:24;;;;;;;3.35;1.92;;;;;;;-148.88;91.41;76384.59;4956220;28;20030;-74
2022/10/10 03:12:50;;;;;;;3.05;1.75;;;;;;;-148.88;91.45;76382.56;4956140;28;20106;-74
2022/10/10 03:15:15;;;;;;;4.30;2.10;;;;;;;-148.88;91.44;76386.63;4956176;28;20498;-74
2022/10/10 03:17:41;;;;;;;2.40;1.63;;;;;;;-148.88;91.41;76390.69;4956303;28;20031;-74
2022/10/10 03:20:07;;;;;;;4.13;2.30;;;;;;;-148.88;91.81;76390.69;4956293;28;20054;-74
2022/10/10 03:22:32;;;;;;;3.65;2.00;;;;;;;-148.88;91.88;76398.81;4955972;28;20379;-74
2022/10/10 03:24:58;;;;;;;5.78;2.97;;;;;;;-148.88;92.09;76394.75;4955739;28;20521;-75
2022/10/10 03:27:23;;;;;;;5.53;2.75;;;;;;;-148.88;92.46;76396.78;4955671;28;20027;-75
2022/10/10 03:29:48;;;;;;;3.22;1.77;;;;;;;-148.88;92.23;76404.91;4955672;28;20161;-74
2022/10/10 03:32:14;;;;;;;4.80;2.05;;;;;;;-148.88;92.31;76404.91;4955589;28;20030;-74
2022/10/10 03:34:39;;;;;;;3.42;2.40;;;;;;;-148.88;92.52;76406.94;4955582;28;20019;-74
2022/10/10 03:37:05;;;;;;;5.40;1.95;;;;;;;-148.88;92.53;76411.00;4954160;29;20027;-74
2022/10/10 03:39:30;;;;;;;4.72;1.83;;;;;;;-148.88;92.81;76413.03;4955505;28;20039;-74
2022/10/10 03:41:56;;;;;;;3.70;2.08;;;;;;;-148.88;93.03;76415.06;4955565;28;20034;-74
2022/10/10 03:44:22;;;;;;;4.72;2.10;;;;;;;-148.88;93.09;76417.09;4955944;28;20026;-74
2022/10/10 03:46:47;;;;;;;3.17;1.80;;;;;;;-148.88;93.34;76423.19;4955910;28;20023;-74
2022/10/10 03:49:13;;;;;;;5.85;1.90;;;;;;;-148.88;93.39;76421.19;4955755;28;20495;-74
2022/10/10 03:51:40;;;;;;;5.38;2.20;;;;;;;-148.88;93.43;76425.25;4954420;28;20034;-74
2022/10/10 03:54:07;;;;;;;2.95;1.85;;;;;;;-148.88;93.43;76423.19;4969838;28;20487;-74
2022/10/10 03:56:32;;;;;;;4.10;1.92;;;;;;;-148.88;93.53;76429.31;4953843;29;20047;-74
2022/10/10 03:58:59;;;;;;;5.13;1.88;;;;;;;-148.88;93.87;76423.19;4955136;28;20023;-75
2022/10/10 04:01:26;;;;;;;4.95;2.25;;;;;;;-148.88;94.04;76427.28;4955028;28;20367;-74
2022/10/10 04:03:52;;;;;;;4.55;1.92;;;;;;;-148.88;94.23;76431.34;4954880;28;20057;-75
2022/10/10 04:06:18;;;;;;;2.67;1.92;;;;;;;-148.88;94.33;76427.28;4954908;28;20019;-74
2022/10/10 04:08:43;;;;;;;7.65;2.90;;;;;;;-148.88;93.78;76423.19;4954855;28;20043;-75
2022/10/10 04:11:09;;;;;;;4.47;2.33;;;;;;;-148.88;93.87;76431.34;4954781;28;20033;-74
2022/10/10 04:13:38;;;;;;;7.78;2.00;;;;;;;-148.88;93.87;76429.31;4969457;28;20035;-74
2022/10/10 04:16:05;;;;;;;3.60;2.08;;;;;;;-148.88;94.14;76435.41;4955155;28;20043;-75
2022/10/10 04:18:31;;;;;;;4.65;1.95;;;;;;;-148.88;94.39;76435.41;4955479;28;20026;-74
2022/10/10 04:20:56;;;;;;;4.85;2.00;;;;;;;-148.88;94.83;76439.47;4955174;28;20023;-75
2022/10/10 04:23:22;;;;;;;6.35;2.50;;;;;;;-148.88;95.18;76439.47;4955402;28;20027;-74
2022/10/10 04:25:51;;;;;;;3.55;1.77;;;;;;;-148.88;95.48;76445.56;4953621;29;20031;-76
2022/10/10 04:28:21;;;;;;;5.18;2.97;;;;;;;-148.88;95.12;76445.56;4954882;28;20074;-74
2022/10/10 04:30:48;;;;;;;6.10;2.17;;;;;;;-148.88;95.84;76447.59;4955083;28;20027;-74
2022/10/10 04:33:13;;;;;;;4.65;2.10;;;;;;;-148.88;95.72;76443.53;4953635;29;20038;-74
2022/10/10 04:35:39;;;;;;;6.55;3.03;;;;;;;-148.88;95.53;76443.53;4954867;28;20501;-75
2022/10/10 04:38:06;;;;;;;5.35;2.30;;;;;;;-148.88;95.70;76443.53;4954765;28;20027;-75
2022/10/10 04:40:31;;;;;;;3.42;1.67;;;;;;;-148.88;95.33;76443.53;4954880;28;20032;-75
2022/10/10 04:42:57;;;;;;;6.05;2.33;;;;;;;-148.88;95.55;76441.50;4954806;28;20031;-75
2022/10/10 04:45:25;;;;;;;7.82;2.28;;;;;;;-148.88;95.25;76445.56;4954570;28;20031;-74
2022/10/10 04:47:54;;;;;;;4.47;2.00;;;;;;;-148.88;95.47;76443.53;4954390;28;20034;-74
2022/10/10 04:50:20;;;;;;;7.30;2.33;;;;;;;-148.88;94.99;76451.66;4954561;28;20114;-74
2022/10/10 04:52:45;;;;;;;4.40;2.40;;;;;;;-148.88;95.23;76447.59;4954335;28;20030;-74
2022/10/10 04:55:10;;;;;;;2.92;1.75;;;;;;;-148.88;94.98;76447.59;4954756;28;20023;-75
2022/10/10 04:57:36;;;;;;;5.40;2.08;;;;;;;-148.88;94.55;76451.66;4954355;28;20077;-75
2022/10/10 05:00:03;;;;;;;3.00;2.00;;;;;;;-148.88;94.43;76451.66;4954420;28;20027;-74
2022/10/10 05:02:28;;;;;;;6.43;2.13;;;;;;;-148.88;94.55;76463.84;4954087;28;20049;-74
2022/10/10 05:04:54;;;;;;;16.35;2.63;;;;;;;-148.88;94.24;76478.06;4954331;28;20043;-75
2022/10/10 05:07:19;;;;;;;5.70;2.45;;;;;;;-148.88;94.71;76476.03;4954331;28;20486;-74
2022/10/10 05:09:44;;;;;;;6.65;2.13;;;;;;;-148.88;94.88;76478.06;4954547;28;20024;-74
2022/10/10 05:12:09;;;;;;;4.45;1.98;;;;;;;-148.88;95.29;76478.06;4954692;28;20478;-75
2022/10/10 05:14:35;;;;;;;4.93;2.33;;;;;;;-148.88;95.77;76480.09;4954288;28;20036;-74
2022/10/10 05:17:00;;;;;;;5.05;2.17;;;;;;;-148.88;96.00;76467.91;4954265;28;20034;-74
2022/10/10 05:19:25;;;;;;;4.22;2.20;;;;;;;-148.88;95.45;76474.00;4954228;28;20023;-75
2022/10/10 05:21:51;;;;;;;4.15;2.17;;;;;;;-148.88;95.34;76471.97;4954125;28;20062;-74
2022/10/10 05:24:16;;;;;;;5.60;1.98;;;;;;;-148.88;95.13;76476.03;4954092;28;20023;-74
2022/10/10 05:26:41;;;;;;;4.88;2.15;;;;;;;-148.88;95.70;76471.97;4954079;28;20394;-75
2022/10/10 05:29:07;;;;;;;4.22;1.98;;;;;;;-148.88;95.21;76474.00;4954186;28;20069;-74
2022/10/10 05:31:33;;;;;;;4.55;2.15;;;;;;;-148.88;95.21;76476.03;4954463;28;20051;-74
2022/10/10 05:33:59;;;;;;;5.53;2.30;;;;;;;-148.88;95.27;76478.06;4954145;28;20549;-74
2022/10/10 05:36:24;;;;;;;3.63;2.05;;;;;;;-148.88;95.28;76480.09;4954090;28;20035;-74
2022/10/10 05:38:49;;;;;;;4.18;2.10;;;;;;;-148.88;96.11;76476.03;4954136;28;20074;-74
2022/10/10 05:41:15;;;;;;;4.45;3.40;;;;;;;-148.88;95.87;76471.97;4953885;28;20026;-74
2022/10/10 05:43:40;;;;;;;3.28;2.28;;;;;;;-148.88;95.72;76480.09;4953888;28;20169;-74
2022/10/10 05:46:05;;;;;;;4.68;2.13;;;;;;;-148.88;96.17;76484.16;4953951;28;20022;-74
2022/10/10 05:48:31;;;;;;;3.95;2.17;;;;;;;-148.88;95.96;76484.16;4953933;28;20031;-74
2022/10/10 05:50:58;;;;;;;4.35;2.35;;;;;;;-148.88;96.28;76484.16;4953853;28;20399;-74
2022/10/10 05:53:28;;;;;;;5.47;2.65;;;;;;;-148.88;96.52;76484.16;4954631;28;20389;-74
2022/10/10 05:55:54;;;;;;;4.30;2.10;;;;;;;-148.88;96.39;76480.09;4954593;28;20094;-75
2022/10/10 05:58:20;;;;;;;11.48;2.53;;;;;;;-148.88;96.28;76484.16;4954329;28;20450;-75
2022/10/10 06:00:46;;;;;;;5.45;2.38;;;;;;;-148.88;96.69;76488.22;4954748;28;20114;-75
2022/10/10 06:03:15;;;;;;;4.32;2.25;;;;;;;-148.88;97.13;76484.16;4954277;28;20426;-75
2022/10/10 06:05:42;;;;;;;3.53;2.47;;;;;;;-148.88;97.27;76478.06;4954194;28;20061;-75
2022/10/10 06:08:07;;;;;;;5.47;2.20;;;;;;;-148.88;97.45;76471.97;4954323;28;20486;-74
2022/10/10 06:10:39;;;;;;;4.05;2.10;;;;;;;-148.88;97.73;76478.06;4954206;28;20041;-74
2022/10/10 06:13:04;;;;;;;5.35;2.25;;;;;;;-148.88;97.91;76478.06;4954252;28;20028;-74
2022/10/10 06:15:30;;;;;;;5.55;2.15;;;;;;;-148.88;98.04;76471.97;4955332;28;20490;-75
2022/10/10 06:17:55;;;;;;;5.35;2.60;;;;;;;-148.88;97.83;76467.91;4957684;28;20054;-74
2022/10/10 06:20:21;;;;;;;8.85;2.80;;;;;;;-148.88;98.26;76457.75;4957598;28;20027;-75
2022/10/10 06:22:46;;;;;;;4.85;3.00;;;;;;;-148.88;98.45;76451.66;4957604;28;20030;-74
2022/10/10 06:25:11;;;;;;;8.98;2.72;;;;;;;-148.88;98.29;76451.66;4957444;28;20114;-74
2022/10/10 06:27:37;;;;;;;5.93;2.63;;;;;;;-148.88;98.46;76443.53;4957474;28;20082;-75
2022/10/10 06:30:03;;;;;;;4.82;2.70;;;;;;;-148.88;98.48;76439.47;4957493;28;20035;-75
2022/10/10 06:32:28;;;;;;;6.88;2.58;;;;;;;-148.88;98.53;76431.34;4957297;28;20042;-74
2022/10/10 06:34:54;;;;;;;5.32;2.78;;;;;;;-148.88;98.54;76425.25;4957398;28;20023;-74
2022/10/10 06:37:19;;;;;;;4.05;2.53;;;;;;;-148.88;98.24;76415.06;4957504;28;20113;-75
2022/10/10 06:39:44;;;;;;;4.13;2.33;;;;;;;-148.88;98.02;76406.94;4957277;28;20054;-75
2022/10/10 06:42:10;;;;;;;4.75;2.65;;;;;;;-148.88;98.38;76406.94;4957128;28;20070;-74
2022/10/10 06:44:35;;;;;;;5.47;2.42;;;;;;;-148.88;98.12;76396.78;4957141;28;20026;-74
2022/10/10 06:47:00;;;;;;;6.63;2.65;;;;;;;-148.88;98.09;76386.63;4955901;29;20083;-74
2022/10/10 06:49:26;;;;;;;6.45;3.88;;;;;;;-148.88;98.15;76372.41;4957127;28;20166;-74
2022/10/10 06:51:51;;;;;;;4.65;2.65;;;;;;;-148.88;97.88;76370.38;4955704;28;20027;-74
2022/10/10 06:54:16;;;;;;;5.35;2.85;;;;;;;-148.88;97.64;76356.16;4957061;28;20030;-74
2022/10/10 06:56:42;;;;;;;6.47;2.75;;;;;;;-148.88;97.64;76348.03;4957267;28;20110;-75
2022/10/10 06:59:07;;;;;;;6.30;2.85;;;;;;;-148.88;97.34;76339.91;4957191;28;20121;-75
2022/10/10 07:01:32;;;;;;;9.43;3.08;;;;;;;-148.88;97.10;76335.84;4957133;28;20019;-75
2022/10/10 07:03:58;;;;;;;10.23;3.03;;;;;;;-148.88;97.08;76325.69;4956778;28;20470;-75
2022/10/10 07:06:23;;;;;;;4.60;2.58;;;;;;;-148.88;97.05;76317.56;4956788;28;20023;-75
2022/10/10 07:08:48;;;;;;;6.15;3.92;;;;;;;-148.88;96.96;76305.38;4956753;28;20029;-75
2022/10/10 07:11:14;;;;;;;7.93;2.70;;;;;;;-148.88;96.91;76301.31;4956935;28;20034;-75
2022/10/10 07:13:39;;;;;;;5.82;2.47;;;;;;;-148.88;96.96;76283.03;4956659;28;20039;-74
2022/10/10 07:16:05;;;;;;;5.68;2.47;;;;;;;-148.88;96.95;76274.91;4955424;29;20095;-74
2022/10/10 07:18:32;;;;;;;4.72;2.78;;;;;;;-148.88;96.85;76268.81;4956563;28;20035;-75
2022/10/10 07:20:59;;;;;;;6.10;4.13;;;;;;;-148.88;97.00;76256.63;4955128;28;20501;-76
2022/10/10 07:23:25;;;;;;;6.75;4.28;;;;;;;-148.88;96.76;76254.59;4956430;28;20039;-75
2022/10/10 07:25:51;;;;;;;5.80;3.33;;;;;;;-148.88;96.03;76246.47;4955656;28;20038;-75
2022/10/10 07:28:16;;;;;;;7.93;2.67;;;;;;;-148.88;95.43;76242.41;4956477;28;20035;-74
2022/10/10 07:30:44;;;;;;;9.27;7.97;;;;;;;-148.88;95.55;76224.13;4956350;28;20027;-75
2022/10/10 07:33:11;;;;;;;9.55;2.90;;;;;;;-148.88;95.43;76220.06;4956360;28;20027;-73
2022/10/10 07:35:36;;;;;;;4.70;2.55;;;;;;;-148.88;94.77;76205.84;4955235;28;20031;-74
2022/10/10 07:38:02;;;;;;;8.43;4.20;;;;;;;-148.88;95.00;76175.38;4956192;28;20049;-75
2022/10/10 07:40:27;;;;;;;8.23;3.60;;;;;;;-148.88;94.17;76171.31;4956627;28;20097;-76
2022/10/10 07:42:52;;;;;;;7.40;4.15;;;;;;;-148.88;94.82;76159.13;4954802;28;20074;-75
2022/10/10 07:45:18;;;;;;;6.95;3.65;;;;;;;-148.88;94.55;76146.94;4956348;28;20028;-77
2022/10/10 07:47:43;;;;;;;6.20;2.80;;;;;;;-148.88;94.96;76134.72;4956113;28;20110;-75
2022/10/10 07:50:10;;;;;;;4.80;2.70;;;;;;;-148.88;95.10;76122.56;4955927;28;20030;-74
2022/10/10 07:52:36;;;;;;;5.70;3.80;;;;;;;-148.88;94.72;76102.22;4955833;28;20434;-74
2022/10/10 07:55:03;;;;;;;8.05;3.85;;;;;;;-148.88;93.97;76081.91;4955955;28;20023;-74
2022/10/10 07:57:33;;;;;;;5.93;3.60;;;;;;;-148.88;93.87;76071.75;4956294;28;20513;-77
2022/10/10 08:00:05;;;;;;;9.82;3.90;;;;;;;-148.88;92.49;76053.47;4954624;28;20545;-74
2022/10/10 08:02:31;;;;;;;6.47;3.63;;;;;;;-148.88;91.85;76043.31;4955713;28;20035;-74
2022/10/10 08:04:56;;;;;;;5.60;2.85;;;;;;;-148.88;91.20;76033.16;4955658;28;20038;-75
2022/10/10 08:07:21;;;;;;;7.38;4.38;;;;;;;-148.88;91.31;76016.91;4954423;29;20031;-74
2022/10/10 08:09:47;;;;;;;7.57;4.60;;;;;;;-148.88;92.82;75998.63;4955621;28;20075;-75
2022/10/10 08:12:12;;;;;;;8.32;4.07;;;;;;;-148.88;91.89;75982.38;4955490;28;20050;-75
2022/10/10 08:14:38;;;;;;;6.90;4.10;;;;;;;-148.88;91.34;75955.97;4956123;28;20038;-74
2022/10/10 08:17:04;;;;;;;5.97;4.00;;;;;;;-148.88;91.21;75949.88;4954183;29;20118;-75
2022/10/10 08:19:29;;;;;;;5.40;3.80;;;;;;;-148.88;90.88;75939.72;4955725;28;20034;-76
2022/10/10 08:21:55;;;;;;;8.13;3.92;;;;;;;-148.88;90.88;75913.31;4955470;28;20375;-75
2022/10/10 08:24:20;;;;;;;6.32;4.03;;;;;;;-148.88;90.43;75903.16;4955328;28;20094;-74
2022/10/10 08:26:46;;;;;;;6.95;4.20;;;;;;;-148.88;90.25;75884.88;4955373;28;20027;-75
2022/10/10 08:29:11;;;;;;;10.05;4.10;;;;;;;-148.88;89.90;75872.69;4955589;28;20034;-74
2022/10/10 08:31:36;;;;;;;8.18;4.00;;;;;;;-148.88;88.55;75852.38;4955227;28;20023;-75
2022/10/10 08:34:01;;;;;;;8.82;4.13;;;;;;;-148.88;89.59;75834.09;4955241;28;20035;-75
2022/10/10 08:36:27;;;;;;;8.45;4.07;;;;;;;-148.88;88.98;75819.88;4955394;28;20058;-75
2022/10/10 08:38:59;;;;;;;6.47;4.13;;;;;;;-148.88;88.04;75801.59;4969745;28;20102;-75
2022/10/10 08:41:46;;;;;;;6.38;3.90;;;;;;;-148.88;88.82;75771.13;4953835;28;20023;-75
2022/10/10 08:44:42;;;;;;;8.43;3.90;;;;;;;-148.88;86.68;75742.69;4955316;28;20031;-75
2022/10/10 08:47:13;;;;;;;6.65;3.53;;;;;;;-148.88;85.19;75720.34;4953841;28;20020;-75
2022/10/10 08:49:52;;;;;;;7.30;3.85;;;;;;;-148.88;84.73;75689.88;4954337;28;20065;-75
2022/10/10 08:52:42;;;;;;;6.38;3.70;;;;;;;-148.88;84.85;75661.44;4955026;28;20109;-75
2022/10/10 08:55:21;;;;;;;6.10;3.55;;;;;;;-148.88;83.93;75643.16;4955299;29;20498;-75
2022/10/10 08:58:31;;;;;;;8.38;3.80;;;;;;;-148.88;85.93;75618.78;4955411;28;20386;-75
2022/10/10 09:01:08;;;;;;;7.93;3.42;;;;;;;-148.88;85.29;75592.38;4953816;28;20380;-75
2022/10/10 09:03:46;;;;;;;6.57;3.50;;;;;;;-148.88;80.26;75570.03;4955018;28;20019;-75
2022/10/10 09:06:12;;;;;;;9.07;3.75;;;;;;;-148.88;80.92;75545.69;4953358;29;20027;-74
2022/10/10 09:08:52;;;;;;;6.47;3.53;;;;;;;-148.88;79.04;75537.56;4955177;28;20102;-74
2022/10/10 09:11:24;;;;;;;5.68;3.30;;;;;;;-148.88;78.79;75513.19;4954631;28;20019;-74
2022/10/10 09:14:04;;;;;;;8.45;3.35;;;;;;;-148.88;78.03;75492.88;4954976;28;20550;-74
2022/10/10 09:16:54;;;;;;;6.43;3.28;;;;;;;-148.88;79.03;75452.25;4954861;28;20047;-74
2022/10/10 09:19:26;;;;;;;7.60;3.67;;;;;;;-148.88;77.03;75427.88;4954590;28;20027;-74
2022/10/10 09:21:57;;;;;;;5.47;3.47;;;;;;;-148.88;76.31;75403.50;4953208;28;20030;-74
2022/10/10 09:24:31;;;;;;;6.47;3.13;;;;;;;-148.88;75.30;75387.25;4954696;28;20033;-74
2022/10/10 09:27:03;;;;;;;5.28;3.33;;;;;;;-148.88;75.52;75375.06;4954724;28;20023;-74
2022/10/10 09:29:52;;;;;;;7.65;3.42;;;;;;;-148.88;74.73;75354.75;4954562;28;20425;-74
2022/10/10 09:32:35;;;;;;;6.97;3.88;;;;;;;-148.88;74.96;75377.09;4954707;28;20089;-74
2022/10/10 09:35:26;;;;;;;8.35;3.22;;;;;;;-148.88;75.83;75368.97;4954430;28;20102;-75
2022/10/10 09:38:12;;;;;;;9.32;3.88;;;;;;;-148.88;75.34;75371.00;4954437;28;20107;-74
2022/10/10 09:40:45;;;;;;;7.55;3.35;;;;;;;-148.88;75.43;75375.06;4954583;28;20517;-75
2022/10/10 09:43:16;;;;;;;6.65;3.65;;;;;;;-148.88;75.04;75391.31;4954639;28;20056;-74
2022/10/10 09:45:50;;;;;;;8.40;3.58;;;;;;;-148.88;75.43;75395.38;4954842;28;20067;-74
2022/10/10 09:48:15;;;;;;;5.28;3.35;;;;;;;-148.88;74.59;75391.31;4954488;28;20375;-74
2022/10/10 09:50:40;;;;;;;6.72;3.45;;;;;;;-148.88;74.32;75387.25;4957091;28;20034;-74
2022/10/10 09:53:06;;;;;;;8.93;3.50;;;;;;;-148.88;73.74;75387.25;4958147;28;20027;-75
2022/10/10 09:55:38;;;;;;;8.93;3.47;;;;;;;-148.88;74.17;75371.00;4957905;28;20052;-74
2022/10/10 09:58:14;;;;;;;7.28;3.60;;;;;;;-148.88;74.21;75346.63;4957936;28;20023;-74
2022/10/10 10:00:39;;;;;;;8.07;3.58;;;;;;;-148.88;74.81;75334.44;4958021;28;20035;-74
2022/10/10 10:03:18;;;;;;;10.25;3.80;;;;;;;-148.88;72.42;75344.59;4957789;28;20034;-74
2022/10/10 10:05:52;;;;;;;7.00;3.08;;;;;;;-148.88;73.49;75322.25;4957877;28;20027;-74
2022/10/10 10:08:23;;;;;;;6.93;3.30;;;;;;;-148.88;74.00;75320.22;4957987;28;20397;-74
2022/10/10 10:10:48;;;;;;;8.68;3.92;;;;;;;-148.88;72.60;75301.94;4957830;28;20027;-74
2022/10/10 10:13:21;;;;;;;5.15;2.92;;;;;;;-148.88;71.22;75287.72;4972323;28;20033;-74
2022/10/10 10:15:49;;;;;;;6.45;3.28;;;;;;;-148.88;71.35;75265.41;4957800;28;20371;-75
2022/10/10 10:18:26;;;;;;;5.82;3.30;;;;;;;-148.88;71.31;75261.34;4957554;28;20026;-74
2022/10/10 10:21:02;;;;;;;8.77;3.40;;;;;;;-148.88;70.63;75245.09;4956140;28;20493;-74
2022/10/10 10:23:32;;;;;;;7.35;3.47;;;;;;;-148.88;70.05;75249.16;4957758;28;20027;-74
2022/10/10 10:26:05;;;;;;;7.53;3.33;;;;;;;-148.88;68.53;75228.84;4957645;28;20032;-74
2022/10/10 10:28:38;;;;;;;7.18;2.97;;;;;;;-148.88;68.26;75222.75;4957718;28;20397;-75
2022/10/10 10:31:05;;;;;;;6.57;3.40;;;;;;;-148.88;68.29;75232.91;4957800;28;20035;-75
2022/10/10 10:33:53;;;;;;;5.70;3.08;;;;;;;-148.88;67.32;75228.84;4957297;28;20102;-73
2022/10/10 10:36:24;;;;;;;5.03;3.00;;;;;;;-148.88;67.20;75212.59;4957493;28;20027;-73
2022/10/10 10:39:17;;;;;;;6.47;2.90;;;;;;;-148.88;67.49;75204.47;4957472;28;20170;-73
2022/10/10 10:41:51;;;;;;;9.00;3.00;;;;;;;-148.88;65.33;75176.03;4957268;28;20035;-74
2022/10/10 10:44:48;;;;;;;8.90;3.08;;;;;;;-148.88;66.12;75135.41;4957568;28;20102;-73
2022/10/10 10:47:26;;;;;;;6.15;2.72;;;;;;;-148.88;63.96;75094.81;4957283;28;20035;-73
2022/10/10 10:50:10;;;;;;;8.10;3.10;;;;;;;-148.88;64.28;75078.56;4957153;28;20522;-73
2022/10/10 10:52:41;;;;;;;6.93;2.90;;;;;;;-148.88;64.08;75086.69;4956899;28;20035;-73
2022/10/10 10:55:20;;;;;;;7.30;2.97;;;;;;;-148.88;62.52;75066.38;4956845;28;20042;-73
2022/10/10 10:58:01;;;;;;;9.10;3.25;;;;;;;-148.88;62.94;75029.81;4956813;28;20102;-73
2022/10/10 11:00:31;;;;;;;4.93;2.33;;;;;;;-148.88;62.69;75027.78;4956519;28;20058;-73
2022/10/10 11:03:26;;;;;;;8.32;2.67;;;;;;;-148.88;60.89;75062.31;4957093;28;20039;-73
2022/10/10 11:05:56;;;;;;;;;;;;;;;-148.88;59.00;75029.81;4957453;28;20035;-73
2022/10/10 11:08:29;;;;;;;7.68;2.92;;;;;;;-148.88;59.10;75019.66;4956873;28;19969;-74
2022/10/10 11:11:14;;;;;;;8.27;4.07;;;;;;;-148.88;58.90;75023.72;4956712;28;20034;-73
2022/10/10 11:13:51;;;;;;;6.93;3.80;;;;;;;-148.88;58.17;74985.13;4956398;28;20035;-73
2022/10/10 11:16:26;;;;;;;13.15;3.03;;;;;;;-148.88;57.47;75027.78;4956520;28;20051;-73
2022/10/10 11:19:09;;;;;;;7.30;3.40;;;;;;;-148.88;58.51;74985.13;4956458;28;20067;-73
2022/10/10 11:21:42;;;;;;;5.70;2.80;;;;;;;-148.88;59.12;74981.06;4956491;28;20089;-74
2022/10/10 11:24:15;;;;;;;6.45;2.95;;;;;;;-148.88;57.50;74952.63;4956556;28;20382;-74
2022/10/10 11:26:45;;;;;;;5.13;2.63;;;;;;;-148.88;59.77;74914.06;4956325;28;20118;-74
2022/10/10 11:29:18;;;;;;;11.57;3.72;;;;;;;-148.88;58.20;74981.06;4956524;28;20383;-74